sensor_id;sensor_type;location;lat;lon;timestamp;temperature;humidity
44990;DHT22;30723;51.206;3.326;2023-02-28T00:01:38;1.90;99.90
44990;DHT22;30723;51.206;3.326;2023-02-28T00:04:05;1.90;99.90
44990;DHT22;30723;51.206;3.326;2023-02-28T00:06:32;1.90;99.90
44990;DHT22;30723;51.206;3.326;2023-02-28T00:08:58;1.80;99.90
44990;DHT22;30723;51.206;3.326;2023-02-28T00:11:24;1.80;99.90
44990;DHT22;30723;51.206;3.326;2023-02-28T00:13:51;1.70;99.90
44990;DHT22;30723;51.206;3.326;2023-02-28T00:16:20;1.70;99.90
44990;DHT22;30723;51.206;3.326;2023-02-28T00:18:47;1.70;99.90
44990;DHT22;30723;51.206;3.326;2023-02-28T00:21:14;1.80;99.90
44990;DHT22;30723;51.206;3.326;2023-02-28T00:23:40;1.70;99.90
44990;DHT22;30723;51.206;3.326;2023-02-28T00:26:07;1.70;99.90
44990;DHT22;30723;51.206;3.326;2023-02-28T00:28:33;1.70;99.90
44990;DHT22;30723;51.206;3.326;2023-02-28T00:31:02;1.70;99.90
44990;DHT22;30723;51.206;3.326;2023-02-28T00:33:29;1.70;99.90
44990;DHT22;30723;51.206;3.326;2023-02-28T00:36:23;1.70;99.90
44990;DHT22;30723;51.206;3.326;2023-02-28T00:38:50;1.70;99.90
44990;DHT22;30723;51.206;3.326;2023-02-28T00:41:17;1.70;99.90
44990;DHT22;30723;51.206;3.326;2023-02-28T00:43:44;1.60;99.90
44990;DHT22;30723;51.206;3.326;2023-02-28T00:46:10;1.50;99.90
44990;DHT22;30723;51.206;3.326;2023-02-28T00:48:39;1.60;99.90
44990;DHT22;30723;51.206;3.326;2023-02-28T00:51:05;1.60;99.90
44990;DHT22;30723;51.206;3.326;2023-02-28T00:53:31;1.60;99.90
44990;DHT22;30723;51.206;3.326;2023-02-28T00:56:01;1.60;99.90
44990;DHT22;30723;51.206;3.326;2023-02-28T00:58:28;1.60;99.90
44990;DHT22;30723;51.206;3.326;2023-02-28T01:00:55;1.50;99.90
44990;DHT22;30723;51.206;3.326;2023-02-28T01:03:21;1.50;99.90
44990;DHT22;30723;51.206;3.326;2023-02-28T01:05:49;1.50;99.90
44990;DHT22;30723;51.206;3.326;2023-02-28T01:08:16;1.50;99.90
44990;DHT22;30723;51.206;3.326;2023-02-28T01:10:42;1.40;99.90
44990;DHT22;30723;51.206;3.326;2023-02-28T01:13:08;1.40;99.90
44990;DHT22;30723;51.206;3.326;2023-02-28T01:15:35;1.40;99.90
44990;DHT22;30723;51.206;3.326;2023-02-28T01:18:02;1.40;99.90
44990;DHT22;30723;51.206;3.326;2023-02-28T01:20:29;1.50;99.90
44990;DHT22;30723;51.206;3.326;2023-02-28T01:22:55;1.40;99.90
44990;DHT22;30723;51.206;3.326;2023-02-28T01:25:21;1.40;99.90
44990;DHT22;30723;51.206;3.326;2023-02-28T01:27:47;1.40;99.90
44990;DHT22;30723;51.206;3.326;2023-02-28T01:30:12;1.30;99.90
44990;DHT22;30723;51.206;3.326;2023-02-28T01:32:38;1.30;99.90
44990;DHT22;30723;51.206;3.326;2023-02-28T01:35:04;1.30;99.90
44990;DHT22;30723;51.206;3.326;2023-02-28T01:37:30;1.30;99.90
44990;DHT22;30723;51.206;3.326;2023-02-28T01:39:56;1.20;99.90
44990;DHT22;30723;51.206;3.326;2023-02-28T01:42:24;1.20;99.90
44990;DHT22;30723;51.206;3.326;2023-02-28T01:45:26;1.30;99.90
44990;DHT22;30723;51.206;3.326;2023-02-28T01:47:57;1.30;99.90
44990;DHT22;30723;51.206;3.326;2023-02-28T01:50:27;1.30;99.90
44990;DHT22;30723;51.206;3.326;2023-02-28T01:53:15;1.30;99.90
44990;DHT22;30723;51.206;3.326;2023-02-28T01:56:04;1.30;99.90
44990;DHT22;30723;51.206;3.326;2023-02-28T01:58:51;1.30;99.90
44990;DHT22;30723;51.206;3.326;2023-02-28T02:01:38;1.30;99.90
44990;DHT22;30723;51.206;3.326;2023-02-28T02:04:24;1.30;99.90
44990;DHT22;30723;51.206;3.326;2023-02-28T02:07:12;1.30;99.90
44990;DHT22;30723;51.206;3.326;2023-02-28T02:09:38;1.30;99.90
44990;DHT22;30723;51.206;3.326;2023-02-28T02:12:27;1.30;99.90
44990;DHT22;30723;51.206;3.326;2023-02-28T02:15:22;1.30;99.90
44990;DHT22;30723;51.206;3.326;2023-02-28T02:18:17;1.20;99.90
44990;DHT22;30723;51.206;3.326;2023-02-28T02:24:03;1.20;99.90
44990;DHT22;30723;51.206;3.326;2023-02-28T02:34:43;1.40;99.90
44990;DHT22;30723;51.206;3.326;2023-02-28T02:42:47;1.60;99.90
44990;DHT22;30723;51.206;3.326;2023-02-28T02:48:04;1.70;99.90
44990;DHT22;30723;51.206;3.326;2023-02-28T02:50:38;1.70;99.90
44990;DHT22;30723;51.206;3.326;2023-02-28T02:53:06;1.80;99.90
44990;DHT22;30723;51.206;3.326;2023-02-28T02:55:37;1.80;99.90
44990;DHT22;30723;51.206;3.326;2023-02-28T02:58:04;1.80;99.90
44990;DHT22;30723;51.206;3.326;2023-02-28T03:00:42;1.90;99.90
44990;DHT22;30723;51.206;3.326;2023-02-28T03:03:11;1.90;99.90
44990;DHT22;30723;51.206;3.326;2023-02-28T03:05:50;2.00;99.90
44990;DHT22;30723;51.206;3.326;2023-02-28T03:08:17;2.00;99.90
44990;DHT22;30723;51.206;3.326;2023-02-28T03:10:49;2.00;99.90
44990;DHT22;30723;51.206;3.326;2023-02-28T03:13:26;2.10;99.90
44990;DHT22;30723;51.206;3.326;2023-02-28T03:16:35;2.10;99.90
44990;DHT22;30723;51.206;3.326;2023-02-28T03:29:47;2.40;99.90
44990;DHT22;30723;51.206;3.326;2023-02-28T03:35:16;2.40;99.90
44990;DHT22;30723;51.206;3.326;2023-02-28T03:37:53;2.40;99.90
44990;DHT22;30723;51.206;3.326;2023-02-28T03:40:27;2.40;99.90
44990;DHT22;30723;51.206;3.326;2023-02-28T03:43:12;2.40;99.90
44990;DHT22;30723;51.206;3.326;2023-02-28T03:45:40;2.50;99.90
44990;DHT22;30723;51.206;3.326;2023-02-28T03:50:47;2.60;99.90
44990;DHT22;30723;51.206;3.326;2023-02-28T03:53:27;2.60;99.90
44990;DHT22;30723;51.206;3.326;2023-02-28T03:58:37;2.60;99.90
44990;DHT22;30723;51.206;3.326;2023-02-28T04:01:15;2.60;99.90
44990;DHT22;30723;51.206;3.326;2023-02-28T04:03:43;2.70;99.90
44990;DHT22;30723;51.206;3.326;2023-02-28T04:06:15;2.70;99.90
44990;DHT22;30723;51.206;3.326;2023-02-28T04:08:43;2.70;99.90
44990;DHT22;30723;51.206;3.326;2023-02-28T04:11:33;2.80;99.90
44990;DHT22;30723;51.206;3.326;2023-02-28T04:14:02;2.80;99.90
44990;DHT22;30723;51.206;3.326;2023-02-28T04:16:30;2.90;99.90
44990;DHT22;30723;51.206;3.326;2023-02-28T04:18:57;3.00;99.90
44990;DHT22;30723;51.206;3.326;2023-02-28T04:24:02;3.00;99.90
44990;DHT22;30723;51.206;3.326;2023-02-28T04:26:30;3.00;99.90
44990;DHT22;30723;51.206;3.326;2023-02-28T04:28:57;3.00;99.90
44990;DHT22;30723;51.206;3.326;2023-02-28T04:31:23;3.10;99.90
44990;DHT22;30723;51.206;3.326;2023-02-28T04:33:50;3.00;99.90
44990;DHT22;30723;51.206;3.326;2023-02-28T04:36:18;3.00;99.90
44990;DHT22;30723;51.206;3.326;2023-02-28T04:38:45;3.00;99.90
44990;DHT22;30723;51.206;3.326;2023-02-28T04:41:13;3.10;99.90
44990;DHT22;30723;51.206;3.326;2023-02-28T04:43:40;3.10;99.90
44990;DHT22;30723;51.206;3.326;2023-02-28T04:46:07;3.10;99.90
44990;DHT22;30723;51.206;3.326;2023-02-28T04:48:37;3.10;99.90
44990;DHT22;30723;51.206;3.326;2023-02-28T04:51:04;3.20;99.90
44990;DHT22;30723;51.206;3.326;2023-02-28T04:53:31;3.20;99.90
44990;DHT22;30723;51.206;3.326;2023-02-28T04:55:59;3.20;99.90
44990;DHT22;30723;51.206;3.326;2023-02-28T04:58:26;3.40;99.90
44990;DHT22;30723;51.206;3.326;2023-02-28T05:00:55;3.40;99.90
44990;DHT22;30723;51.206;3.326;2023-02-28T05:03:27;3.30;99.90
44990;DHT22;30723;51.206;3.326;2023-02-28T05:05:54;3.30;99.90
44990;DHT22;30723;51.206;3.326;2023-02-28T05:08:21;3.30;99.90
44990;DHT22;30723;51.206;3.326;2023-02-28T05:10:47;3.20;99.90
44990;DHT22;30723;51.206;3.326;2023-02-28T05:13:13;3.20;99.90
44990;DHT22;30723;51.206;3.326;2023-02-28T05:15:40;3.20;99.90
44990;DHT22;30723;51.206;3.326;2023-02-28T05:18:09;3.20;99.90
44990;DHT22;30723;51.206;3.326;2023-02-28T05:20:35;3.10;99.90
44990;DHT22;30723;51.206;3.326;2023-02-28T05:23:02;3.10;99.90
44990;DHT22;30723;51.206;3.326;2023-02-28T05:25:29;3.00;99.90
44990;DHT22;30723;51.206;3.326;2023-02-28T05:27:55;3.10;99.90
44990;DHT22;30723;51.206;3.326;2023-02-28T05:30:20;3.10;99.90
44990;DHT22;30723;51.206;3.326;2023-02-28T05:32:50;3.20;99.90
44990;DHT22;30723;51.206;3.326;2023-02-28T05:35:17;3.20;99.90
44990;DHT22;30723;51.206;3.326;2023-02-28T05:37:44;3.20;99.90
44990;DHT22;30723;51.206;3.326;2023-02-28T05:40:12;3.20;99.90
44990;DHT22;30723;51.206;3.326;2023-02-28T05:42:39;3.30;99.90
44990;DHT22;30723;51.206;3.326;2023-02-28T05:45:07;3.30;99.90
44990;DHT22;30723;51.206;3.326;2023-02-28T05:47:35;3.30;99.90
44990;DHT22;30723;51.206;3.326;2023-02-28T05:50:01;3.40;99.90
44990;DHT22;30723;51.206;3.326;2023-02-28T05:52:29;3.40;99.90
44990;DHT22;30723;51.206;3.326;2023-02-28T05:54:59;3.30;99.90
44990;DHT22;30723;51.206;3.326;2023-02-28T05:57:25;3.40;99.90
44990;DHT22;30723;51.206;3.326;2023-02-28T05:59:52;3.40;99.90
44990;DHT22;30723;51.206;3.326;2023-02-28T06:02:18;3.50;99.90
44990;DHT22;30723;51.206;3.326;2023-02-28T06:04:45;3.50;99.90
44990;DHT22;30723;51.206;3.326;2023-02-28T06:07:11;3.50;99.90
44990;DHT22;30723;51.206;3.326;2023-02-28T06:09:39;3.50;99.90
44990;DHT22;30723;51.206;3.326;2023-02-28T06:12:06;3.50;99.90
44990;DHT22;30723;51.206;3.326;2023-02-28T06:14:34;3.50;99.90
44990;DHT22;30723;51.206;3.326;2023-02-28T06:17:02;3.50;99.90
44990;DHT22;30723;51.206;3.326;2023-02-28T06:19:29;3.50;99.90
44990;DHT22;30723;51.206;3.326;2023-02-28T06:21:56;3.50;99.90
44990;DHT22;30723;51.206;3.326;2023-02-28T06:24:25;3.50;99.90
44990;DHT22;30723;51.206;3.326;2023-02-28T06:26:54;3.50;99.90
44990;DHT22;30723;51.206;3.326;2023-02-28T06:29:21;3.50;99.90
44990;DHT22;30723;51.206;3.326;2023-02-28T06:31:48;3.50;99.90
44990;DHT22;30723;51.206;3.326;2023-02-28T06:34:15;3.50;99.90
44990;DHT22;30723;51.206;3.326;2023-02-28T06:36:42;3.50;99.90
44990;DHT22;30723;51.206;3.326;2023-02-28T06:39:09;3.50;99.90
44990;DHT22;30723;51.206;3.326;2023-02-28T06:41:37;3.60;99.90
44990;DHT22;30723;51.206;3.326;2023-02-28T06:44:14;3.60;99.90
44990;DHT22;30723;51.206;3.326;2023-02-28T06:46:42;3.60;99.90
44990;DHT22;30723;51.206;3.326;2023-02-28T06:49:10;3.60;99.90
44990;DHT22;30723;51.206;3.326;2023-02-28T06:51:39;3.60;99.90
44990;DHT22;30723;51.206;3.326;2023-02-28T06:54:06;3.60;99.90
44990;DHT22;30723;51.206;3.326;2023-02-28T06:56:35;3.60;99.90
44990;DHT22;30723;51.206;3.326;2023-02-28T06:59:02;3.50;99.90
44990;DHT22;30723;51.206;3.326;2023-02-28T07:01:31;3.50;99.90
44990;DHT22;30723;51.206;3.326;2023-02-28T07:04:02;3.50;99.90
44990;DHT22;30723;51.206;3.326;2023-02-28T07:06:27;3.60;99.90
44990;DHT22;30723;51.206;3.326;2023-02-28T07:08:54;3.50;99.90
44990;DHT22;30723;51.206;3.326;2023-02-28T07:11:40;3.40;99.90
44990;DHT22;30723;51.206;3.326;2023-02-28T07:14:08;3.50;99.90
44990;DHT22;30723;51.206;3.326;2023-02-28T07:16:35;3.50;99.90
44990;DHT22;30723;51.206;3.326;2023-02-28T07:19:01;3.40;99.90
44990;DHT22;30723;51.206;3.326;2023-02-28T07:21:27;3.40;99.90
44990;DHT22;30723;51.206;3.326;2023-02-28T07:23:53;3.40;99.90
44990;DHT22;30723;51.206;3.326;2023-02-28T07:26:19;3.30;99.90
44990;DHT22;30723;51.206;3.326;2023-02-28T07:28:47;3.20;99.90
44990;DHT22;30723;51.206;3.326;2023-02-28T07:31:13;3.20;99.90
44990;DHT22;30723;51.206;3.326;2023-02-28T07:33:40;3.20;99.90
44990;DHT22;30723;51.206;3.326;2023-02-28T07:36:08;3.20;99.90
44990;DHT22;30723;51.206;3.326;2023-02-28T07:38:35;3.10;99.90
44990;DHT22;30723;51.206;3.326;2023-02-28T07:41:04;3.20;99.90
44990;DHT22;30723;51.206;3.326;2023-02-28T07:43:31;3.10;99.90
44990;DHT22;30723;51.206;3.326;2023-02-28T07:46:10;3.10;99.90
44990;DHT22;30723;51.206;3.326;2023-02-28T07:48:37;3.10;99.90
44990;DHT22;30723;51.206;3.326;2023-02-28T07:51:04;3.00;99.90
44990;DHT22;30723;51.206;3.326;2023-02-28T07:53:31;3.00;99.90
44990;DHT22;30723;51.206;3.326;2023-02-28T07:55:59;3.00;99.90
44990;DHT22;30723;51.206;3.326;2023-02-28T07:58:26;3.10;99.90
44990;DHT22;30723;51.206;3.326;2023-02-28T08:00:53;3.20;99.90
44990;DHT22;30723;51.206;3.326;2023-02-28T08:03:21;3.00;99.90
44990;DHT22;30723;51.206;3.326;2023-02-28T08:05:48;3.00;99.90
44990;DHT22;30723;51.206;3.326;2023-02-28T08:08:16;3.10;99.90
44990;DHT22;30723;51.206;3.326;2023-02-28T08:10:42;3.20;99.90
44990;DHT22;30723;51.206;3.326;2023-02-28T08:13:08;3.30;99.90
44990;DHT22;30723;51.206;3.326;2023-02-28T08:15:34;3.20;99.90
44990;DHT22;30723;51.206;3.326;2023-02-28T08:18:01;3.00;99.90
44990;DHT22;30723;51.206;3.326;2023-02-28T08:20:27;3.00;99.90
44990;DHT22;30723;51.206;3.326;2023-02-28T08:22:54;3.00;99.90
44990;DHT22;30723;51.206;3.326;2023-02-28T08:25:20;3.00;99.90
44990;DHT22;30723;51.206;3.326;2023-02-28T08:27:47;3.00;99.90
44990;DHT22;30723;51.206;3.326;2023-02-28T08:30:13;3.00;99.90
44990;DHT22;30723;51.206;3.326;2023-02-28T08:32:40;2.90;99.90
44990;DHT22;30723;51.206;3.326;2023-02-28T08:35:06;2.80;99.90
44990;DHT22;30723;51.206;3.326;2023-02-28T08:37:32;2.80;99.90
44990;DHT22;30723;51.206;3.326;2023-02-28T08:39:58;2.70;99.90
44990;DHT22;30723;51.206;3.326;2023-02-28T08:42:25;2.60;99.90
44990;DHT22;30723;51.206;3.326;2023-02-28T08:44:52;2.60;99.90
44990;DHT22;30723;51.206;3.326;2023-02-28T08:47:19;2.50;99.90
44990;DHT22;30723;51.206;3.326;2023-02-28T08:49:45;2.50;99.90
44990;DHT22;30723;51.206;3.326;2023-02-28T08:52:12;2.50;99.90
44990;DHT22;30723;51.206;3.326;2023-02-28T08:54:38;2.50;99.90
44990;DHT22;30723;51.206;3.326;2023-02-28T08:57:05;2.50;99.90
44990;DHT22;30723;51.206;3.326;2023-02-28T08:59:33;2.40;99.90
44990;DHT22;30723;51.206;3.326;2023-02-28T09:01:59;2.30;99.90
44990;DHT22;30723;51.206;3.326;2023-02-28T09:04:26;2.30;99.90
44990;DHT22;30723;51.206;3.326;2023-02-28T09:06:52;2.40;99.90
44990;DHT22;30723;51.206;3.326;2023-02-28T09:09:19;2.50;99.90
44990;DHT22;30723;51.206;3.326;2023-02-28T09:11:45;2.60;99.90
44990;DHT22;30723;51.206;3.326;2023-02-28T09:14:12;2.80;99.90
44990;DHT22;30723;51.206;3.326;2023-02-28T09:16:38;2.80;99.90
44990;DHT22;30723;51.206;3.326;2023-02-28T09:19:04;2.80;99.90
44990;DHT22;30723;51.206;3.326;2023-02-28T09:21:30;2.90;99.90
44990;DHT22;30723;51.206;3.326;2023-02-28T09:23:57;3.00;99.90
44990;DHT22;30723;51.206;3.326;2023-02-28T09:26:25;3.10;99.90
44990;DHT22;30723;51.206;3.326;2023-02-28T09:28:53;3.10;99.90
44990;DHT22;30723;51.206;3.326;2023-02-28T09:31:25;3.20;99.90
44990;DHT22;30723;51.206;3.326;2023-02-28T09:33:53;3.30;99.90
44990;DHT22;30723;51.206;3.326;2023-02-28T09:36:19;3.40;99.90
44990;DHT22;30723;51.206;3.326;2023-02-28T09:38:46;3.50;99.90
44990;DHT22;30723;51.206;3.326;2023-02-28T09:41:22;3.50;99.90
44990;DHT22;30723;51.206;3.326;2023-02-28T09:44:09;3.50;99.90
44990;DHT22;30723;51.206;3.326;2023-02-28T09:49:42;3.50;99.90
44990;DHT22;30723;51.206;3.326;2023-02-28T09:52:19;3.40;99.90
44990;DHT22;30723;51.206;3.326;2023-02-28T09:54:46;3.40;99.90
44990;DHT22;30723;51.206;3.326;2023-02-28T09:57:37;3.50;99.90
44990;DHT22;30723;51.206;3.326;2023-02-28T10:03:01;3.70;99.90
44990;DHT22;30723;51.206;3.326;2023-02-28T10:05:41;3.80;99.90
44990;DHT22;30723;51.206;3.326;2023-02-28T10:10:50;4.10;99.90
44990;DHT22;30723;51.206;3.326;2023-02-28T10:13:35;4.20;99.90
44990;DHT22;30723;51.206;3.326;2023-02-28T10:16:08;4.30;99.90
44990;DHT22;30723;51.206;3.326;2023-02-28T10:19:02;4.40;99.90
44990;DHT22;30723;51.206;3.326;2023-02-28T10:21:38;4.60;99.90
44990;DHT22;30723;51.206;3.326;2023-02-28T10:26:47;4.40;99.90
44990;DHT22;30723;51.206;3.326;2023-02-28T10:29:14;4.20;99.90
44990;DHT22;30723;51.206;3.326;2023-02-28T10:31:41;4.00;99.90
44990;DHT22;30723;51.206;3.326;2023-02-28T10:34:10;3.80;99.90
44990;DHT22;30723;51.206;3.326;2023-02-28T10:36:37;3.90;99.90
44990;DHT22;30723;51.206;3.326;2023-02-28T10:39:34;3.90;99.90
44990;DHT22;30723;51.206;3.326;2023-02-28T10:42:00;4.10;99.90
44990;DHT22;30723;51.206;3.326;2023-02-28T10:44:25;4.30;99.90
44990;DHT22;30723;51.206;3.326;2023-02-28T10:46:52;4.40;99.90
44990;DHT22;30723;51.206;3.326;2023-02-28T10:49:26;4.60;99.90
44990;DHT22;30723;51.206;3.326;2023-02-28T10:52:00;4.60;99.90
44990;DHT22;30723;51.206;3.326;2023-02-28T10:54:34;4.50;99.90
44990;DHT22;30723;51.206;3.326;2023-02-28T10:57:20;4.50;99.90
44990;DHT22;30723;51.206;3.326;2023-02-28T10:59:51;4.40;99.90
44990;DHT22;30723;51.206;3.326;2023-02-28T11:02:34;4.40;99.90
44990;DHT22;30723;51.206;3.326;2023-02-28T11:05:00;4.50;99.90
44990;DHT22;30723;51.206;3.326;2023-02-28T11:07:27;4.40;99.90
44990;DHT22;30723;51.206;3.326;2023-02-28T11:09:55;4.30;99.90
44990;DHT22;30723;51.206;3.326;2023-02-28T11:12:34;4.40;99.90
44990;DHT22;30723;51.206;3.326;2023-02-28T11:15:07;4.30;99.90
44990;DHT22;30723;51.206;3.326;2023-02-28T11:17:52;4.30;99.90
44990;DHT22;30723;51.206;3.326;2023-02-28T11:20:25;4.40;99.90
44990;DHT22;30723;51.206;3.326;2023-02-28T11:22:53;4.70;99.90
44990;DHT22;30723;51.206;3.326;2023-02-28T11:25:36;4.90;99.90
44990;DHT22;30723;51.206;3.326;2023-02-28T11:28:31;5.00;99.90
44990;DHT22;30723;51.206;3.326;2023-02-28T11:33:53;5.60;99.90
44990;DHT22;30723;51.206;3.326;2023-02-28T11:38:48;5.70;99.90
44990;DHT22;30723;51.206;3.326;2023-02-28T11:52:37;6.60;99.90
44990;DHT22;30723;51.206;3.326;2023-02-28T12:03:41;8.90;99.90
44990;DHT22;30723;51.206;3.326;2023-02-28T12:06:22;10.10;99.90
44990;DHT22;30723;51.206;3.326;2023-02-28T12:11:55;13.00;99.90
44990;DHT22;30723;51.206;3.326;2023-02-28T12:28:17;15.20;83.40
44990;DHT22;30723;51.206;3.326;2023-02-28T12:31:04;14.20;81.20
44990;DHT22;30723;51.206;3.326;2023-02-28T12:33:51;14.30;85.20
44990;DHT22;30723;51.206;3.326;2023-02-28T12:36:20;12.70;87.80
44990;DHT22;30723;51.206;3.326;2023-02-28T12:41:54;11.30;93.20
44990;DHT22;30723;51.206;3.326;2023-02-28T12:44:46;11.30;92.40
44990;DHT22;30723;51.206;3.326;2023-02-28T12:47:17;10.90;93.40
44990;DHT22;30723;51.206;3.326;2023-02-28T12:50:13;11.50;92.70
44990;DHT22;30723;51.206;3.326;2023-02-28T12:52:51;13.00;90.90
44990;DHT22;30723;51.206;3.326;2023-02-28T12:58:27;14.30;84.40
44990;DHT22;30723;51.206;3.326;2023-02-28T13:04:06;15.40;77.80
44990;DHT22;30723;51.206;3.326;2023-02-28T13:09:25;16.10;74.90
44990;DHT22;30723;51.206;3.326;2023-02-28T13:11:55;17.30;74.00
44990;DHT22;30723;51.206;3.326;2023-02-28T13:19:58;18.80;69.60
44990;DHT22;30723;51.206;3.326;2023-02-28T13:24:55;18.70;64.80
44990;DHT22;30723;51.206;3.326;2023-02-28T13:29:52;16.90;65.20
44990;DHT22;30723;51.206;3.326;2023-02-28T13:42:48;16.60;63.00
44990;DHT22;30723;51.206;3.326;2023-02-28T13:45:27;16.60;61.50
44990;DHT22;30723;51.206;3.326;2023-02-28T13:48:02;16.40;60.90
44990;DHT22;30723;51.206;3.326;2023-02-28T13:50:37;16.00;60.40
44990;DHT22;30723;51.206;3.326;2023-02-28T13:59:03;16.00;63.10
44990;DHT22;30723;51.206;3.326;2023-02-28T14:01:49;16.50;62.20
44990;DHT22;30723;51.206;3.326;2023-02-28T14:07:03;16.10;59.40
44990;DHT22;30723;51.206;3.326;2023-02-28T14:09:30;16.40;61.30
44990;DHT22;30723;51.206;3.326;2023-02-28T14:12:49;16.30;58.10
44990;DHT22;30723;51.206;3.326;2023-02-28T14:17:29;13.80;59.90
44990;DHT22;30723;51.206;3.326;2023-02-28T14:19:58;13.50;58.90
44990;DHT22;30723;51.206;3.326;2023-02-28T14:27:43;14.30;63.80
44990;DHT22;30723;51.206;3.326;2023-02-28T14:33:42;15.30;58.20
44990;DHT22;30723;51.206;3.326;2023-02-28T14:36:27;14.70;56.40
44990;DHT22;30723;51.206;3.326;2023-02-28T14:38:58;14.60;56.60
44990;DHT22;30723;51.206;3.326;2023-02-28T14:41:37;13.50;57.50
44990;DHT22;30723;51.206;3.326;2023-02-28T14:44:22;14.20;59.40
44990;DHT22;30723;51.206;3.326;2023-02-28T14:46:58;14.60;59.00
44990;DHT22;30723;51.206;3.326;2023-02-28T14:49:34;15.10;59.30
44990;DHT22;30723;51.206;3.326;2023-02-28T14:52:15;14.60;58.20
44990;DHT22;30723;51.206;3.326;2023-02-28T14:54:42;14.30;58.90
44990;DHT22;30723;51.206;3.326;2023-02-28T14:57:30;14.00;57.70
44990;DHT22;30723;51.206;3.326;2023-02-28T15:00:16;14.00;57.80
44990;DHT22;30723;51.206;3.326;2023-02-28T15:02:49;13.40;57.90
44990;DHT22;30723;51.206;3.326;2023-02-28T15:07:45;13.10;55.60
44990;DHT22;30723;51.206;3.326;2023-02-28T15:12:40;12.50;57.80
44990;DHT22;30723;51.206;3.326;2023-02-28T15:15:15;11.80;57.10
44990;DHT22;30723;51.206;3.326;2023-02-28T15:17:45;12.20;58.80
44990;DHT22;30723;51.206;3.326;2023-02-28T15:20:13;12.50;58.10
44990;DHT22;30723;51.206;3.326;2023-02-28T15:22:41;12.70;57.40
44990;DHT22;30723;51.206;3.326;2023-02-28T15:25:15;12.60;57.60
44990;DHT22;30723;51.206;3.326;2023-02-28T15:27:54;12.90;58.30
44990;DHT22;30723;51.206;3.326;2023-02-28T15:30:31;13.30;58.00
44990;DHT22;30723;51.206;3.326;2023-02-28T15:35:43;12.60;56.80
44990;DHT22;30723;51.206;3.326;2023-02-28T15:38:26;12.70;57.50
44990;DHT22;30723;51.206;3.326;2023-02-28T15:40:57;12.40;57.80
44990;DHT22;30723;51.206;3.326;2023-02-28T15:45:53;12.80;58.10
44990;DHT22;30723;51.206;3.326;2023-02-28T15:48:23;13.20;59.10
44990;DHT22;30723;51.206;3.326;2023-02-28T15:50:54;13.10;57.80
44990;DHT22;30723;51.206;3.326;2023-02-28T15:53:24;12.10;58.90
44990;DHT22;30723;51.206;3.326;2023-02-28T15:56:22;11.00;61.40
44990;DHT22;30723;51.206;3.326;2023-02-28T15:58:48;9.60;62.10
44990;DHT22;30723;51.206;3.326;2023-02-28T16:01:37;8.90;64.20
44990;DHT22;30723;51.206;3.326;2023-02-28T16:04:17;8.40;67.50
44990;DHT22;30723;51.206;3.326;2023-02-28T16:07:04;8.10;67.90
44990;DHT22;30723;51.206;3.326;2023-02-28T16:09:31;7.60;71.10
44990;DHT22;30723;51.206;3.326;2023-02-28T16:12:01;7.50;72.30
44990;DHT22;30723;51.206;3.326;2023-02-28T16:14:29;7.30;73.60
44990;DHT22;30723;51.206;3.326;2023-02-28T16:17:06;7.10;75.30
44990;DHT22;30723;51.206;3.326;2023-02-28T16:19:35;7.00;75.60
44990;DHT22;30723;51.206;3.326;2023-02-28T16:22:02;7.00;76.60
44990;DHT22;30723;51.206;3.326;2023-02-28T16:24:29;6.90;77.80
44990;DHT22;30723;51.206;3.326;2023-02-28T16:26:56;6.80;79.50
44990;DHT22;30723;51.206;3.326;2023-02-28T16:29:35;6.80;79.40
44990;DHT22;30723;51.206;3.326;2023-02-28T16:32:04;6.70;80.40
44990;DHT22;30723;51.206;3.326;2023-02-28T16:34:31;6.70;81.20
44990;DHT22;30723;51.206;3.326;2023-02-28T16:36:57;6.60;82.20
44990;DHT22;30723;51.206;3.326;2023-02-28T16:39:25;6.60;80.70
44990;DHT22;30723;51.206;3.326;2023-02-28T16:41:52;6.50;84.00
44990;DHT22;30723;51.206;3.326;2023-02-28T16:46:47;6.50;85.30
44990;DHT22;30723;51.206;3.326;2023-02-28T16:49:14;6.40;85.40
44990;DHT22;30723;51.206;3.326;2023-02-28T16:51:41;6.30;86.90
44990;DHT22;30723;51.206;3.326;2023-02-28T16:54:07;6.20;87.20
44990;DHT22;30723;51.206;3.326;2023-02-28T16:56:34;6.20;87.90
44990;DHT22;30723;51.206;3.326;2023-02-28T16:59:01;6.20;89.60
44990;DHT22;30723;51.206;3.326;2023-02-28T17:01:28;6.10;89.50
44990;DHT22;30723;51.206;3.326;2023-02-28T17:03:58;6.10;90.10
44990;DHT22;30723;51.206;3.326;2023-02-28T17:06:27;6.00;90.00
44990;DHT22;30723;51.206;3.326;2023-02-28T17:08:55;5.90;90.70
44990;DHT22;30723;51.206;3.326;2023-02-28T17:11:22;5.80;91.70
44990;DHT22;30723;51.206;3.326;2023-02-28T17:13:49;5.80;92.40
44990;DHT22;30723;51.206;3.326;2023-02-28T17:18:51;5.70;93.20
44990;DHT22;30723;51.206;3.326;2023-02-28T17:21:17;5.70;93.20
44990;DHT22;30723;51.206;3.326;2023-02-28T17:23:44;5.70;93.40
44990;DHT22;30723;51.206;3.326;2023-02-28T17:26:14;5.70;93.70
44990;DHT22;30723;51.206;3.326;2023-02-28T17:28:41;5.70;94.10
44990;DHT22;30723;51.206;3.326;2023-02-28T17:31:08;5.60;94.60
44990;DHT22;30723;51.206;3.326;2023-02-28T17:33:35;5.50;94.70
44990;DHT22;30723;51.206;3.326;2023-02-28T17:36:05;5.50;95.10
44990;DHT22;30723;51.206;3.326;2023-02-28T17:38:31;5.40;95.80
44990;DHT22;30723;51.206;3.326;2023-02-28T17:40:57;5.30;96.30
44990;DHT22;30723;51.206;3.326;2023-02-28T17:43:25;5.20;96.80
44990;DHT22;30723;51.206;3.326;2023-02-28T17:45:52;5.10;97.20
44990;DHT22;30723;51.206;3.326;2023-02-28T17:48:18;5.20;98.10
44990;DHT22;30723;51.206;3.326;2023-02-28T17:50:45;5.10;98.20
44990;DHT22;30723;51.206;3.326;2023-02-28T17:53:12;5.00;98.70
44990;DHT22;30723;51.206;3.326;2023-02-28T17:55:38;4.80;99.90
44990;DHT22;30723;51.206;3.326;2023-02-28T17:58:08;4.70;99.90
44990;DHT22;30723;51.206;3.326;2023-02-28T18:00:34;4.70;99.90
44990;DHT22;30723;51.206;3.326;2023-02-28T18:03:01;4.70;99.90
44990;DHT22;30723;51.206;3.326;2023-02-28T18:05:27;4.50;99.90
44990;DHT22;30723;51.206;3.326;2023-02-28T18:07:54;4.50;99.90
44990;DHT22;30723;51.206;3.326;2023-02-28T18:10:21;4.40;99.90
44990;DHT22;30723;51.206;3.326;2023-02-28T18:12:49;4.20;99.90
44990;DHT22;30723;51.206;3.326;2023-02-28T18:15:18;4.20;99.90
44990;DHT22;30723;51.206;3.326;2023-02-28T18:17:47;4.10;99.90
44990;DHT22;30723;51.206;3.326;2023-02-28T18:20:14;4.20;99.90
44990;DHT22;30723;51.206;3.326;2023-02-28T18:22:42;4.20;99.90
44990;DHT22;30723;51.206;3.326;2023-02-28T18:25:11;4.20;99.90
44990;DHT22;30723;51.206;3.326;2023-02-28T18:27:43;4.10;99.90
44990;DHT22;30723;51.206;3.326;2023-02-28T18:30:19;4.10;99.90
44990;DHT22;30723;51.206;3.326;2023-02-28T18:32:46;4.00;99.90
44990;DHT22;30723;51.206;3.326;2023-02-28T18:35:13;4.10;99.90
44990;DHT22;30723;51.206;3.326;2023-02-28T18:37:40;4.00;99.90
44990;DHT22;30723;51.206;3.326;2023-02-28T18:40:09;4.00;99.90
44990;DHT22;30723;51.206;3.326;2023-02-28T18:42:36;4.00;99.90
44990;DHT22;30723;51.206;3.326;2023-02-28T18:45:05;3.90;99.90
44990;DHT22;30723;51.206;3.326;2023-02-28T18:47:33;3.80;99.90
44990;DHT22;30723;51.206;3.326;2023-02-28T18:50:00;3.80;99.90